BLACK BUTTE (BLB)

Elevation: 426' · STONY CR basin · Operator: US Army Corps of Engineers

Provisional data, subject to change.
Query executed Friday at 9:56:08   clock

Select a sensor type for a plot of data.
Note: Reservoir Flows are daily averages.

Earlier

Date RES ELE    STORAGE    RES CHG    TOC STO    ABV TOC    OUTFLOW    INFLOW    PPT INC    TEMP MN    TEMP MX    EVP PAN   
 FEET   AF   AF   AF   AF   CFS   CFS   INCHES   DEG F   DEG F   INCHES  
11/03/2016 440.17 32019 203 62192 -30173 29 138 0.00 49 71 0.09
11/04/2016 440.26 32186 167 60720 -28534 29 121 0.00 49 76 0.10
11/05/2016 440.33 32315 129 59248 -26932 29 100 0.00 48 68 0.07
11/06/2016 440.40 32446 131 57775 -25329 29 96 0.01 54 67 0.05
11/07/2016 440.47 32576 130 56303 -23727 29 100 0.03 55 71 0.07
11/08/2016 440.52 32670 94 54830 -22160 29 84 0.02 53 78 0.09
11/09/2016 440.58 32782 112 53358 -20576 29 93 0.00 53 78 0.10
11/10/2016 440.62 32857 75 51886 -19029 29 74 0.00 52 77 0.09
11/11/2016 440.66 32932 75 50413 -17481 29 72 0.00 52 70 0.06
11/12/2016 440.70 33008 -- 48941 -15933 29 73 0.00 14 21 0.07
11/13/2016 440.73 33064 56 47468 -14404 29 64 0.02 12 24 0.08
11/14/2016 440.77 33140 76 45996 -12856 29 74 0.00 11 23 0.08
11/15/2016 440.82 33234 -- 44524 -11290 29 79 0.00 9 16 0.03
11/16/2016 440.84 33272 38 43051 -9779 -- -- 0.00 4 16 0.07
11/17/2016 440.87 33329 57 41579 -8250 -- -- 0.00 3 17 0.08
11/18/2016 440.89 33367 38 40107 -6740 30 54 0.00 4 15 0.07
11/19/2016 441.06 33690 -- 38634 -4944 31 195 2.16 8 12 0.02
11/20/2016 441.22 33996 -- 37162 -3166 30 187 0.61 10 13 0.03
11/21/2016 441.37 34284 288 35690 -1406 30 179 0.01 7 17 0.05
11/22/2016 441.50 34536 252 34217 319 25 155 0.14 7 13 0.04
11/23/2016 441.59 34710 174 32745 1965 25 117 0.00 6 15 0.05
11/24/2016 441.67 34866 156 31272 3594 25 107 0.00 4 13 0.04
11/25/2016 441.76 35041 175 29800 5241 26 116 0.02 5 10 0.03
11/26/2016 441.89 35296 255 29800 5496 27 157 0.55 5 10 0.02
11/27/2016 442.02 35552 256 29800 5752 27 159 0.07 3 13 0.04
11/28/2016 442.14 35789 237 29800 5989 28 150 0.00 6 12 0.04
11/29/2016 442.30 36106 317 29800 6306 29 193 0.00 3 16 0.06
11/30/2016 442.40 36305 199 29800 6505 29 132 0.00 3 13 0.04
12/01/2016 442.50 36505 200 29800 6705 29 138 0.00 8 15 0.10
12/02/2016 -- -- -- -- -- -- -- -- -- -- --

Later | Latest

Warning! This data is preliminary and subject to revision.

Show BLB Map | Plot BLB Data | 1 Month BLB Data | Real-Time BLB Data | BLB Info